createdAt,value
2019-06-15T00:00:23.873Z,0.00
2019-06-15T00:01:23.856Z,0.00
2019-06-15T00:02:23.832Z,0.00
2019-06-15T00:03:23.831Z,0.00
2019-06-15T00:04:23.785Z,0.00
2019-06-15T00:05:23.773Z,0.00
2019-06-15T00:06:23.754Z,0.00
2019-06-15T00:07:23.724Z,0.00
2019-06-15T00:08:23.737Z,0.00
2019-06-15T00:09:23.686Z,0.00
2019-06-15T00:10:23.660Z,0.00
2019-06-15T00:11:23.647Z,0.00
2019-06-15T00:12:23.625Z,0.00
2019-06-15T00:13:23.633Z,0.00
2019-06-15T00:14:23.589Z,0.00
2019-06-15T00:15:23.559Z,0.00
2019-06-15T00:16:23.540Z,0.00
2019-06-15T00:17:23.514Z,0.00
2019-06-15T00:18:23.516Z,0.00
2019-06-15T00:19:23.487Z,0.00
2019-06-15T00:20:23.477Z,0.00
2019-06-15T00:21:23.440Z,0.00
2019-06-15T00:22:23.421Z,0.00
2019-06-15T00:23:23.413Z,0.00
2019-06-15T00:24:35.041Z,0.00
2019-06-15T00:25:23.354Z,0.00
2019-06-15T00:26:23.334Z,0.00
2019-06-15T00:27:23.304Z,0.00
2019-06-15T00:28:23.308Z,0.00
2019-06-15T00:29:23.274Z,0.00
2019-06-15T00:30:23.254Z,0.00
2019-06-15T00:31:23.219Z,0.00
2019-06-15T00:32:23.198Z,0.00
2019-06-15T00:33:23.203Z,0.00
2019-06-15T00:34:23.158Z,0.00
2019-06-15T00:35:23.137Z,0.00
2019-06-15T00:36:23.121Z,0.00
2019-06-15T00:37:23.106Z,0.00
2019-06-15T00:38:23.100Z,0.00
2019-06-15T00:39:23.053Z,0.00
2019-06-15T00:40:23.029Z,0.00
2019-06-15T00:41:23.010Z,0.00
2019-06-15T00:42:22.984Z,0.00
2019-06-15T00:43:22.996Z,0.00
2019-06-15T00:44:22.945Z,0.00
2019-06-15T00:45:22.923Z,0.00
2019-06-15T00:46:22.907Z,0.00
2019-06-15T00:47:22.963Z,0.00
2019-06-15T00:48:22.889Z,0.00
2019-06-15T00:49:22.842Z,0.00
2019-06-15T00:50:22.822Z,0.00
2019-06-15T00:51:22.798Z,0.00
2019-06-15T00:52:22.777Z,0.00
2019-06-15T00:53:22.782Z,0.00
2019-06-15T00:54:22.739Z,0.00
2019-06-15T00:55:22.725Z,0.00
2019-06-15T00:56:22.695Z,0.00
2019-06-15T00:57:22.675Z,0.00
2019-06-15T00:58:22.680Z,0.00
2019-06-15T00:59:22.634Z,0.00
2019-06-15T01:00:22.612Z,0.00
2019-06-15T01:01:22.590Z,0.00
2019-06-15T01:02:22.570Z,0.00
2019-06-15T01:03:22.568Z,0.00
2019-06-15T01:04:22.550Z,0.00
2019-06-15T01:05:22.509Z,0.00
2019-06-15T01:06:22.478Z,0.00
2019-06-15T01:07:22.458Z,0.00
2019-06-15T01:08:22.475Z,0.00
2019-06-15T01:09:22.419Z,0.00
2019-06-15T01:10:22.430Z,0.00
2019-06-15T01:11:22.376Z,0.00
2019-06-15T01:12:22.353Z,0.00
2019-06-15T01:13:22.354Z,0.00
2019-06-15T01:14:22.316Z,0.00
2019-06-15T01:15:22.291Z,0.00
2019-06-15T01:16:22.270Z,0.00
2019-06-15T01:17:22.265Z,0.00
2019-06-15T01:18:22.252Z,0.00
2019-06-15T01:19:22.204Z,0.00
2019-06-15T01:20:22.183Z,0.00
2019-06-15T01:21:22.162Z,0.00
2019-06-15T01:22:22.177Z,0.00
2019-06-15T01:23:22.141Z,0.00
2019-06-15T01:24:22.108Z,0.00
2019-06-15T01:25:22.081Z,0.00
2019-06-15T01:26:22.056Z,0.00
2019-06-15T01:27:22.115Z,0.00
2019-06-15T01:28:22.012Z,0.00
2019-06-15T01:29:22.020Z,0.00
2019-06-15T01:30:21.977Z,0.00
2019-06-15T01:31:21.950Z,0.00
2019-06-15T01:32:21.929Z,0.00
2019-06-15T01:33:21.919Z,0.00
2019-06-15T01:34:21.908Z,0.00
2019-06-15T01:35:21.869Z,0.00
2019-06-15T01:36:21.842Z,0.00
2019-06-15T01:37:21.824Z,0.00
2019-06-15T01:38:21.800Z,0.00
2019-06-15T01:39:21.805Z,0.00
2019-06-15T01:40:21.753Z,0.00
2019-06-15T01:41:21.739Z,0.00
2019-06-15T01:42:21.715Z,0.00
2019-06-15T01:43:21.700Z,0.00
2019-06-15T01:44:21.711Z,0.00
2019-06-15T01:45:21.653Z,0.00
2019-06-15T01:46:21.626Z,0.00
2019-06-15T01:47:21.606Z,0.00
2019-06-15T01:48:21.584Z,0.00
2019-06-15T01:49:21.605Z,0.00
2019-06-15T01:50:21.547Z,0.00
2019-06-15T01:51:21.533Z,0.00
2019-06-15T01:52:21.509Z,0.00
2019-06-15T01:53:21.480Z,0.00
2019-06-15T01:54:21.494Z,0.00
2019-06-15T01:55:21.511Z,0.00
2019-06-15T01:56:21.426Z,0.00
2019-06-15T01:57:21.401Z,0.00
2019-06-15T01:58:21.379Z,0.00
2019-06-15T01:59:21.371Z,0.00
2019-06-15T02:00:21.333Z,0.00
2019-06-15T02:01:21.311Z,0.00
2019-06-15T02:02:21.300Z,0.00
2019-06-15T02:03:21.263Z,0.00
2019-06-15T02:04:21.268Z,0.00
2019-06-15T02:05:21.222Z,0.00
2019-06-15T02:06:21.202Z,0.00
2019-06-15T02:07:21.179Z,4.00
2019-06-15T02:08:21.164Z,4.00
2019-06-15T02:09:21.161Z,4.00
2019-06-15T02:10:21.113Z,4.00
2019-06-15T02:11:21.096Z,4.00
2019-06-15T02:12:21.076Z,4.00
2019-06-15T02:13:21.049Z,4.00
2019-06-15T02:14:21.056Z,8.00
2019-06-15T02:15:21.009Z,4.00
2019-06-15T02:16:20.990Z,8.00
2019-06-15T02:17:20.965Z,8.00
2019-06-15T02:18:20.950Z,8.00
2019-06-15T02:19:20.954Z,8.00
2019-06-15T02:20:20.903Z,12.00
2019-06-15T02:21:20.883Z,12.00
2019-06-15T02:22:20.861Z,12.00
2019-06-15T02:23:20.844Z,16.00
2019-06-15T02:24:20.842Z,20.00
2019-06-15T02:25:34.593Z,20.00
2019-06-15T02:26:20.779Z,20.00
2019-06-15T02:27:20.757Z,24.00
2019-06-15T02:28:20.736Z,24.00
2019-06-15T02:29:20.735Z,28.00
2019-06-15T02:30:20.687Z,32.00
2019-06-15T02:31:20.670Z,32.00
2019-06-15T02:32:20.649Z,36.00
2019-06-15T02:33:20.630Z,40.00
2019-06-15T02:34:20.626Z,44.00
2019-06-15T02:35:20.586Z,48.00
2019-06-15T02:36:20.563Z,52.00
2019-06-15T02:37:20.542Z,56.00
2019-06-15T02:38:20.529Z,60.00
2019-06-15T02:39:20.519Z,68.00
2019-06-15T02:40:20.477Z,72.00
2019-06-15T02:41:20.457Z,76.00
2019-06-15T02:42:20.435Z,84.00
2019-06-15T02:43:20.405Z,88.00
2019-06-15T02:44:20.422Z,96.00
2019-06-15T02:45:20.386Z,104.00
2019-06-15T02:46:20.343Z,112.00
2019-06-15T02:47:20.321Z,120.00
2019-06-15T02:48:20.309Z,128.00
2019-06-15T02:49:20.284Z,136.00
2019-06-15T02:50:20.279Z,144.00
2019-06-15T02:51:20.249Z,152.00
2019-06-15T02:52:20.216Z,160.00
2019-06-15T02:53:20.198Z,172.00
2019-06-15T02:54:20.188Z,180.00
2019-06-15T02:55:20.175Z,176.00
2019-06-15T02:56:20.130Z,176.00
2019-06-15T02:57:20.113Z,176.00
2019-06-15T02:58:20.084Z,172.00
2019-06-15T02:59:20.068Z,176.00
2019-06-15T03:00:20.066Z,180.00
2019-06-15T03:01:20.023Z,184.00
2019-06-15T03:02:20.021Z,188.00
2019-06-15T03:03:19.978Z,196.00
2019-06-15T03:04:19.953Z,204.00
2019-06-15T03:05:19.954Z,216.00
2019-06-15T03:06:19.917Z,232.00
2019-06-15T03:07:19.889Z,252.00
2019-06-15T03:08:19.878Z,272.00
2019-06-15T03:09:19.851Z,296.00
2019-06-15T03:10:19.850Z,316.00
2019-06-15T03:11:19.806Z,328.00
2019-06-15T03:12:19.784Z,332.00
2019-06-15T03:13:19.761Z,332.00
2019-06-15T03:14:19.739Z,328.00
2019-06-15T03:15:20.322Z,328.00
2019-06-15T03:16:19.697Z,320.00
2019-06-15T03:17:19.684Z,296.00
2019-06-15T03:18:19.655Z,268.00
2019-06-15T03:19:19.641Z,244.00
2019-06-15T03:20:19.635Z,240.00
2019-06-15T03:21:19.592Z,244.00
2019-06-15T03:22:19.572Z,244.00
2019-06-15T03:23:19.545Z,244.00
2019-06-15T03:24:19.524Z,240.00
2019-06-15T03:25:19.671Z,244.00
2019-06-15T03:26:19.528Z,256.00
2019-06-15T03:27:19.470Z,276.00
2019-06-15T03:28:19.436Z,288.00
2019-06-15T03:29:19.421Z,316.00
2019-06-15T03:30:19.422Z,344.00
2019-06-15T03:31:19.375Z,376.00
2019-06-15T03:32:19.354Z,404.00
2019-06-15T03:33:19.339Z,444.00
2019-06-15T03:34:19.312Z,484.00
2019-06-15T03:35:19.320Z,528.00
2019-06-15T03:36:19.273Z,576.00
2019-06-15T03:37:19.244Z,608.00
2019-06-15T03:38:19.222Z,636.00
2019-06-15T03:39:19.200Z,664.00
2019-06-15T03:40:19.207Z,692.00
2019-06-15T03:41:19.160Z,720.00
2019-06-15T03:42:19.136Z,760.00
2019-06-15T03:43:19.115Z,812.00
2019-06-15T03:44:19.095Z,888.00
2019-06-15T03:45:19.120Z,996.00
2019-06-15T03:46:19.052Z,1108.00
2019-06-15T03:47:19.031Z,1236.00
2019-06-15T03:48:19.009Z,1368.00
2019-06-15T03:49:18.984Z,1568.00
2019-06-15T03:50:18.987Z,1832.00
2019-06-15T03:51:18.944Z,2040.00
2019-06-15T03:52:18.952Z,2084.00
2019-06-15T03:53:18.905Z,1992.00
2019-06-15T03:54:18.884Z,1864.00
2019-06-15T03:55:18.885Z,1704.00
2019-06-15T03:56:21.912Z,1544.00
2019-06-15T03:57:18.818Z,1396.00
2019-06-15T03:58:18.794Z,1292.00
2019-06-15T03:59:18.775Z,1212.00
2019-06-15T04:00:18.783Z,1148.00
2019-06-15T04:01:18.729Z,1088.00
2019-06-15T04:02:18.741Z,1068.00
2019-06-15T04:03:18.695Z,1072.00
2019-06-15T04:04:19.343Z,1096.00
2019-06-15T04:05:18.646Z,1140.00
2019-06-15T04:06:18.662Z,1188.00
2019-06-15T04:07:18.601Z,1276.00
2019-06-15T04:08:18.582Z,1352.00
2019-06-15T04:09:18.565Z,1392.00
2019-06-15T04:10:18.540Z,1376.00
2019-06-15T04:11:18.542Z,1292.00
2019-06-15T04:12:18.496Z,1224.00
2019-06-15T04:13:18.473Z,1192.00
2019-06-15T04:14:18.500Z,1208.00
2019-06-15T04:15:18.439Z,1260.00
2019-06-15T04:16:18.435Z,1344.00
2019-06-15T04:17:18.397Z,1448.00
2019-06-15T04:18:18.367Z,1516.00
2019-06-15T04:19:18.353Z,1620.00
2019-06-15T04:20:18.336Z,1728.00
2019-06-15T04:21:18.326Z,1836.00
2019-06-15T04:22:18.283Z,1996.00
2019-06-15T04:23:18.261Z,2152.00
2019-06-15T04:24:18.253Z,2272.00
2019-06-15T04:25:18.220Z,2308.00
2019-06-15T04:26:18.220Z,2352.00
2019-06-15T04:27:18.176Z,2520.00
2019-06-15T04:28:18.155Z,2872.00
2019-06-15T04:29:18.146Z,3352.00
2019-06-15T04:30:18.118Z,4028.00
2019-06-15T04:31:18.115Z,4680.00
2019-06-15T04:32:18.069Z,5200.00
2019-06-15T04:33:18.051Z,5464.00
2019-06-15T04:34:18.044Z,5460.00
2019-06-15T04:35:18.007Z,5356.00
2019-06-15T04:36:18.013Z,5460.00
2019-06-15T04:37:17.969Z,5756.00
2019-06-15T04:38:17.944Z,5884.00
2019-06-15T04:39:17.928Z,6032.00
2019-06-15T04:40:17.904Z,6008.00
2019-06-15T04:41:17.921Z,5848.00
2019-06-15T04:42:17.890Z,5624.00
2019-06-15T04:43:17.845Z,5316.00
2019-06-15T04:44:17.910Z,4960.00
2019-06-15T04:45:17.820Z,4676.00
2019-06-15T04:46:17.808Z,4492.00
2019-06-15T04:47:17.757Z,4472.00
2019-06-15T04:48:17.738Z,4576.00
2019-06-15T04:49:17.727Z,4644.00
2019-06-15T04:50:17.704Z,4560.00
2019-06-15T04:51:17.702Z,4328.00
2019-06-15T04:52:17.681Z,4224.00
2019-06-15T04:53:17.666Z,4224.00
2019-06-15T04:54:17.615Z,4344.00
2019-06-15T04:55:17.593Z,4556.00
2019-06-15T04:56:17.642Z,4820.00
2019-06-15T04:57:17.553Z,5076.00
2019-06-15T04:58:17.536Z,5408.00
2019-06-15T04:59:17.519Z,5984.00
2019-06-15T05:00:17.516Z,6924.00
2019-06-15T05:01:17.473Z,7464.00
2019-06-15T05:02:17.477Z,8064.00
2019-06-15T05:03:17.436Z,8428.00
2019-06-15T05:04:17.414Z,8876.00
2019-06-15T05:05:17.389Z,9612.00
2019-06-15T05:06:17.385Z,9892.00
2019-06-15T05:07:17.383Z,10028.00
2019-06-15T05:08:17.335Z,10004.00
2019-06-15T05:09:17.314Z,9948.00
2019-06-15T05:10:17.288Z,9936.00
2019-06-15T05:11:17.271Z,10284.00
2019-06-15T05:12:17.273Z,11028.00
2019-06-15T05:13:17.232Z,11572.00
2019-06-15T05:14:17.212Z,11944.00
2019-06-15T05:15:17.356Z,11896.00
2019-06-15T05:16:17.198Z,11452.00
2019-06-15T05:17:18.191Z,11512.00
2019-06-15T05:18:17.171Z,12328.00
2019-06-15T05:19:17.116Z,12932.00
2019-06-15T05:20:19.866Z,12876.00
2019-06-15T05:21:17.089Z,12940.00
2019-06-15T05:22:17.084Z,12744.00
2019-06-15T05:23:17.045Z,11952.00
2019-06-15T05:24:17.015Z,11552.00
2019-06-15T05:25:17.013Z,14532.00
2019-06-15T05:26:16.981Z,15756.00
2019-06-15T05:27:16.991Z,16096.00
2019-06-15T05:28:16.960Z,15684.00
2019-06-15T05:29:16.921Z,15468.00
2019-06-15T05:30:16.905Z,15660.00
2019-06-15T05:31:16.891Z,15552.00
2019-06-15T05:32:16.893Z,14896.00
2019-06-15T05:33:16.852Z,14328.00
2019-06-15T05:34:16.829Z,13892.00
2019-06-15T05:35:16.809Z,13436.00
2019-06-15T05:36:16.792Z,13048.00
2019-06-15T05:37:16.800Z,13040.00
2019-06-15T05:38:16.764Z,13892.00
2019-06-15T05:39:23.777Z,14796.00
2019-06-15T05:40:16.741Z,15204.00
2019-06-15T05:41:16.703Z,14924.00
2019-06-15T05:42:16.705Z,15088.00
2019-06-15T05:43:16.665Z,16192.00
2019-06-15T05:44:16.660Z,15680.00
2019-06-15T05:45:16.632Z,14916.00
2019-06-15T05:46:16.609Z,16640.00
2019-06-15T05:47:16.615Z,12288.00
2019-06-15T05:48:16.579Z,11900.00
2019-06-15T05:49:16.636Z,11084.00
2019-06-15T05:50:16.562Z,10632.00
2019-06-15T05:51:16.524Z,10796.00
2019-06-15T05:52:16.529Z,10820.00
2019-06-15T05:53:16.487Z,11320.00
2019-06-15T05:54:16.466Z,11604.00
2019-06-15T05:55:16.451Z,12032.00
2019-06-15T05:56:16.431Z,13176.00
2019-06-15T05:57:21.627Z,14232.00
2019-06-15T05:58:16.395Z,14684.00
2019-06-15T05:59:16.382Z,14688.00
2019-06-15T06:00:16.359Z,15304.00
2019-06-15T06:01:16.349Z,16832.00
2019-06-15T06:02:16.345Z,17728.00
2019-06-15T06:03:16.309Z,17024.00
2019-06-15T06:04:16.293Z,14684.00
2019-06-15T06:05:16.314Z,12796.00
2019-06-15T06:06:16.268Z,11872.00
2019-06-15T06:07:16.271Z,11884.00
2019-06-15T06:08:16.222Z,12524.00
2019-06-15T06:09:16.201Z,12920.00
2019-06-15T06:10:16.190Z,13540.00
2019-06-15T06:11:16.172Z,14624.00
2019-06-15T06:12:16.172Z,15456.00
2019-06-15T06:13:16.130Z,14208.00
2019-06-15T06:14:16.117Z,12520.00
2019-06-15T06:15:16.097Z,12428.00
2019-06-15T06:16:16.090Z,11712.00
2019-06-15T06:17:16.085Z,12564.00
2019-06-15T06:18:16.046Z,12860.00
2019-06-15T06:19:16.030Z,11052.00
2019-06-15T06:20:16.009Z,9432.00
2019-06-15T06:21:15.991Z,8360.00
2019-06-15T06:22:15.975Z,7988.00
2019-06-15T06:23:15.985Z,8368.00
2019-06-15T06:24:15.950Z,9720.00
2019-06-15T06:25:15.926Z,11708.00
2019-06-15T06:26:15.912Z,12320.00
2019-06-15T06:27:15.893Z,11772.00
2019-06-15T06:28:15.918Z,11984.00
2019-06-15T06:29:15.873Z,12576.00
2019-06-15T06:30:15.839Z,14352.00
2019-06-15T06:31:16.403Z,14716.00
2019-06-15T06:32:15.804Z,13864.00
2019-06-15T06:33:15.807Z,13296.00
2019-06-15T06:34:15.785Z,13952.00
2019-06-15T06:35:15.749Z,12908.00
2019-06-15T06:36:15.739Z,11372.00
2019-06-15T06:37:15.720Z,10408.00
2019-06-15T06:38:15.746Z,9748.00
2019-06-15T06:39:15.679Z,9772.00
2019-06-15T06:40:15.663Z,9496.00
2019-06-15T06:41:15.649Z,9048.00
2019-06-15T06:42:15.631Z,8764.00
2019-06-15T06:43:15.637Z,8760.00
2019-06-15T06:44:15.595Z,8924.00
2019-06-15T06:45:15.580Z,9508.00
2019-06-15T06:46:15.559Z,9012.00
2019-06-15T06:47:15.549Z,8516.00
2019-06-15T06:48:15.621Z,7804.00
2019-06-15T06:49:15.518Z,7592.00
2019-06-15T06:50:15.492Z,7580.00
2019-06-15T06:51:15.471Z,7648.00
2019-06-15T06:52:15.459Z,7760.00
2019-06-15T06:53:15.462Z,7356.00
2019-06-15T06:54:15.425Z,7608.00
2019-06-15T06:55:15.397Z,8384.00
2019-06-15T06:56:15.380Z,9076.00
2019-06-15T06:57:15.375Z,9612.00
2019-06-15T06:58:15.370Z,10368.00
2019-06-15T06:59:15.331Z,10488.00
2019-06-15T07:00:15.316Z,9912.00
2019-06-15T07:01:15.296Z,9452.00
2019-06-15T07:02:15.278Z,9140.00
2019-06-15T07:03:15.302Z,9516.00
2019-06-15T07:04:15.239Z,9964.00
2019-06-15T07:05:15.222Z,10160.00
2019-06-15T07:06:15.206Z,10104.00
2019-06-15T07:07:15.207Z,10344.00
2019-06-15T07:08:15.193Z,11172.00
2019-06-15T07:09:15.149Z,11852.00
2019-06-15T07:10:15.141Z,12168.00
2019-06-15T07:11:15.116Z,12400.00
2019-06-15T07:12:15.116Z,13812.00
2019-06-15T07:13:15.112Z,14000.00
2019-06-15T07:14:15.066Z,12996.00
2019-06-15T07:15:15.042Z,12800.00
2019-06-15T07:16:15.028Z,12484.00
2019-06-15T07:17:15.019Z,12760.00
2019-06-15T07:18:15.014Z,13720.00
2019-06-15T07:19:14.977Z,14512.00
2019-06-15T07:20:14.955Z,14604.00
2019-06-15T07:21:14.956Z,15596.00
2019-06-15T07:22:14.920Z,17216.00
2019-06-15T07:23:14.932Z,17536.00
2019-06-15T07:24:14.900Z,16272.00
2019-06-15T07:25:14.873Z,14444.00
2019-06-15T07:26:14.866Z,12320.00
2019-06-15T07:27:14.840Z,10536.00
2019-06-15T07:28:14.860Z,9472.00
2019-06-15T07:29:14.801Z,9900.00
2019-06-15T07:30:14.814Z,11512.00
2019-06-15T07:31:14.774Z,12700.00
2019-06-15T07:32:14.753Z,13500.00
2019-06-15T07:33:14.743Z,13968.00
2019-06-15T07:34:14.741Z,13748.00
2019-06-15T07:35:14.707Z,14044.00
2019-06-15T07:36:14.680Z,14772.00
2019-06-15T07:37:14.673Z,16520.00
2019-06-15T07:38:14.655Z,17408.00
2019-06-15T07:39:14.666Z,17504.00
2019-06-15T07:40:14.622Z,17920.00
2019-06-15T07:41:14.610Z,17824.00
2019-06-15T07:42:14.584Z,17408.00
2019-06-15T07:43:15.439Z,17216.00
2019-06-15T07:44:14.587Z,17376.00
2019-06-15T07:45:14.546Z,16832.00
2019-06-15T07:46:14.526Z,17152.00
2019-06-15T07:47:14.506Z,18560.00
2019-06-15T07:48:14.542Z,18656.00
2019-06-15T07:49:14.500Z,18080.00
2019-06-15T07:50:14.459Z,18240.00
2019-06-15T07:51:14.450Z,19424.00
2019-06-15T07:52:14.434Z,20672.00
2019-06-15T07:53:14.429Z,20736.00
2019-06-15T07:54:14.489Z,21632.00
2019-06-15T07:55:14.389Z,21632.00
2019-06-15T07:56:14.362Z,21888.00
2019-06-15T07:57:14.345Z,20416.00
2019-06-15T07:58:24.120Z,18496.00
2019-06-15T07:59:14.341Z,17792.00
2019-06-15T08:00:14.364Z,17504.00
2019-06-15T08:01:14.295Z,17504.00
2019-06-15T08:02:14.273Z,16532.00
2019-06-15T08:03:14.261Z,15420.00
2019-06-15T08:04:14.272Z,14596.00
2019-06-15T08:05:14.235Z,14256.00
2019-06-15T08:06:14.214Z,14184.00
2019-06-15T08:07:14.201Z,14444.00
2019-06-15T08:08:14.186Z,14196.00
2019-06-15T08:09:14.200Z,13232.00
2019-06-15T08:10:14.162Z,13148.00
2019-06-15T08:11:14.148Z,13960.00
2019-06-15T08:12:14.128Z,15588.00
2019-06-15T08:13:14.124Z,16392.00
2019-06-15T08:14:14.126Z,15628.00
2019-06-15T08:15:14.942Z,16080.00
2019-06-15T08:16:14.066Z,15232.00
2019-06-15T08:17:14.051Z,13896.00
2019-06-15T08:18:14.036Z,13068.00
2019-06-15T08:19:14.047Z,12668.00
2019-06-15T08:20:14.011Z,12500.00
2019-06-15T08:21:13.995Z,12256.00
2019-06-15T08:22:13.978Z,11948.00
2019-06-15T08:23:13.966Z,11616.00
2019-06-15T08:24:13.982Z,11316.00
2019-06-15T08:25:13.944Z,11120.00
2019-06-15T08:26:13.924Z,10988.00
2019-06-15T08:27:14.128Z,10892.00
2019-06-15T08:28:14.054Z,10844.00
2019-06-15T08:29:13.908Z,10808.00
2019-06-15T08:30:13.861Z,10720.00
2019-06-15T08:31:13.859Z,10696.00
2019-06-15T08:32:13.832Z,10696.00
2019-06-15T08:33:13.814Z,10740.00
2019-06-15T08:34:13.827Z,10724.00
2019-06-15T08:35:13.781Z,10412.00
2019-06-15T08:36:13.767Z,10372.00
2019-06-15T08:37:13.763Z,9600.00
2019-06-15T08:38:13.735Z,9480.00
2019-06-15T08:39:13.742Z,10088.00
2019-06-15T08:40:13.698Z,11480.00
2019-06-15T08:41:13.687Z,12268.00
2019-06-15T08:42:13.667Z,12808.00
2019-06-15T08:43:13.664Z,13352.00
2019-06-15T08:44:13.678Z,13512.00
2019-06-15T08:45:13.625Z,12792.00
2019-06-15T08:46:13.603Z,12684.00
2019-06-15T08:47:13.655Z,13496.00
2019-06-15T08:48:13.578Z,12000.00
2019-06-15T08:49:13.584Z,11560.00
2019-06-15T08:50:13.550Z,13648.00
2019-06-15T08:51:14.497Z,14632.00
2019-06-15T08:52:13.518Z,14152.00
2019-06-15T08:53:17.019Z,14552.00
2019-06-15T08:54:13.481Z,14396.00
2019-06-15T08:55:13.491Z,13656.00
2019-06-15T08:56:13.462Z,12388.00
2019-06-15T08:57:13.441Z,11176.00
2019-06-15T08:58:13.419Z,10492.00
2019-06-15T08:59:13.414Z,10076.00
2019-06-15T09:00:13.418Z,10464.00
2019-06-15T09:01:13.373Z,10796.00
2019-06-15T09:02:13.415Z,10800.00
2019-06-15T09:03:13.344Z,10740.00
2019-06-15T09:04:13.530Z,10876.00
2019-06-15T09:05:13.334Z,11060.00
2019-06-15T09:06:13.293Z,11076.00
2019-06-15T09:07:13.276Z,10984.00
2019-06-15T09:08:13.276Z,10752.00
2019-06-15T09:09:15.943Z,10392.00
2019-06-15T09:10:13.259Z,10152.00
2019-06-15T09:11:13.219Z,9976.00
2019-06-15T09:12:13.202Z,9732.00
2019-06-15T09:13:13.221Z,9588.00
2019-06-15T09:14:13.175Z,9508.00
2019-06-15T09:15:13.180Z,9428.00
2019-06-15T09:16:13.150Z,9340.00
2019-06-15T09:17:14.962Z,9184.00
2019-06-15T09:18:13.386Z,9084.00
2019-06-15T09:19:13.962Z,9040.00
2019-06-15T09:20:13.125Z,8864.00
2019-06-15T09:21:13.062Z,8860.00
2019-06-15T09:22:13.053Z,8716.00
2019-06-15T09:23:13.975Z,8944.00
2019-06-15T09:24:13.016Z,9328.00
2019-06-15T09:25:13.069Z,10136.00
2019-06-15T09:26:12.990Z,11260.00
2019-06-15T09:27:12.974Z,10140.00
2019-06-15T09:28:14.540Z,9344.00
2019-06-15T09:29:13.019Z,9292.00
2019-06-15T09:30:12.946Z,9928.00
2019-06-15T09:31:12.903Z,11376.00
2019-06-15T09:32:12.891Z,12024.00
2019-06-15T09:33:12.874Z,12548.00
2019-06-15T09:34:18.948Z,12984.00
2019-06-15T09:35:12.869Z,13092.00
2019-06-15T09:36:12.852Z,13652.00
2019-06-15T09:37:12.815Z,14504.00
2019-06-15T09:38:12.795Z,15384.00
2019-06-15T09:39:14.652Z,15944.00
2019-06-15T09:40:12.791Z,16240.00
2019-06-15T09:41:12.750Z,16832.00
2019-06-15T09:42:12.777Z,17184.00
2019-06-15T09:43:12.719Z,17696.00
2019-06-15T09:44:12.707Z,18400.00
2019-06-15T09:45:13.471Z,19200.00
2019-06-15T09:46:12.673Z,19104.00
2019-06-15T09:47:12.664Z,19008.00
2019-06-15T09:48:12.642Z,19136.00
2019-06-15T09:49:12.633Z,19040.00
2019-06-15T09:50:12.652Z,18624.00
2019-06-15T09:51:12.601Z,18528.00
2019-06-15T09:52:12.590Z,18560.00
2019-06-15T09:53:12.575Z,18496.00
2019-06-15T09:54:17.477Z,18240.00
2019-06-15T09:55:15.475Z,17568.00
2019-06-15T09:56:13.055Z,17248.00
2019-06-15T09:57:12.531Z,17664.00
2019-06-15T09:58:12.508Z,17600.00
2019-06-15T09:59:25.252Z,17408.00
2019-06-15T10:00:12.501Z,17312.00
2019-06-15T10:01:12.460Z,17184.00
2019-06-15T10:02:12.450Z,17216.00
2019-06-15T10:03:12.460Z,17216.00
2019-06-15T10:04:12.421Z,16992.00
2019-06-15T10:05:12.430Z,16188.00
2019-06-15T10:06:12.394Z,15616.00
2019-06-15T10:07:12.387Z,16012.00
2019-06-15T10:08:12.421Z,15364.00
2019-06-15T10:09:12.407Z,15000.00
2019-06-15T10:10:12.370Z,14816.00
2019-06-15T10:11:12.466Z,14224.00
2019-06-15T10:12:12.316Z,14320.00
2019-06-15T10:13:12.314Z,14412.00
2019-06-15T10:14:12.289Z,14616.00
2019-06-15T10:15:12.278Z,14348.00
2019-06-15T10:16:12.290Z,14508.00
2019-06-15T10:17:12.249Z,14460.00
2019-06-15T10:18:12.241Z,14676.00
2019-06-15T10:19:12.245Z,14672.00
2019-06-15T10:20:12.216Z,14476.00
2019-06-15T10:21:12.248Z,14452.00
2019-06-15T10:22:12.187Z,14652.00
2019-06-15T10:23:12.179Z,14384.00
2019-06-15T10:24:12.162Z,13932.00
2019-06-15T10:25:12.151Z,13952.00
2019-06-15T10:26:12.157Z,13924.00
2019-06-15T10:27:12.123Z,13848.00
2019-06-15T10:28:12.125Z,13912.00
2019-06-15T10:29:12.099Z,14452.00
2019-06-15T10:30:12.085Z,14940.00
2019-06-15T10:31:12.090Z,15404.00
2019-06-15T10:32:12.060Z,15528.00
2019-06-15T10:33:12.042Z,15968.00
2019-06-15T10:34:12.030Z,17056.00
2019-06-15T10:35:12.019Z,18304.00
2019-06-15T10:36:12.030Z,19840.00
2019-06-15T10:37:11.988Z,21312.00
2019-06-15T10:38:11.973Z,21376.00
2019-06-15T10:39:11.963Z,22272.00
2019-06-15T10:40:11.954Z,22208.00
2019-06-15T10:41:11.967Z,21088.00
2019-06-15T10:42:11.925Z,20192.00
2019-06-15T10:43:11.916Z,20896.00
2019-06-15T10:44:11.904Z,21152.00
2019-06-15T10:45:11.894Z,20256.00
2019-06-15T10:46:11.901Z,18336.00
2019-06-15T10:47:11.880Z,16120.00
2019-06-15T10:48:11.854Z,14316.00
2019-06-15T10:49:11.843Z,13052.00
2019-06-15T10:50:11.830Z,12264.00
2019-06-15T10:51:11.846Z,11504.00
2019-06-15T10:52:11.811Z,10988.00
2019-06-15T10:53:11.825Z,10816.00
2019-06-15T10:54:11.815Z,10600.00
2019-06-15T10:55:11.772Z,10488.00
2019-06-15T10:56:11.806Z,10364.00
2019-06-15T10:57:11.745Z,10056.00
2019-06-15T10:58:11.735Z,9996.00
2019-06-15T10:59:11.722Z,9740.00
2019-06-15T11:00:11.754Z,10036.00
2019-06-15T11:01:11.719Z,9960.00
2019-06-15T11:02:11.686Z,10228.00
2019-06-15T11:03:11.670Z,10916.00
2019-06-15T11:04:11.750Z,11708.00
2019-06-15T11:05:11.651Z,12588.00
2019-06-15T11:06:11.657Z,13120.00
2019-06-15T11:07:11.629Z,13936.00
2019-06-15T11:08:11.624Z,14932.00
2019-06-15T11:09:11.594Z,15708.00
2019-06-15T11:10:11.587Z,16400.00
2019-06-15T11:11:11.588Z,17152.00
2019-06-15T11:12:11.554Z,17568.00
2019-06-15T11:13:11.539Z,17952.00
2019-06-15T11:14:11.536Z,18464.00
2019-06-15T11:15:11.515Z,18528.00
2019-06-15T11:16:11.559Z,18912.00
2019-06-15T11:17:11.493Z,18880.00
2019-06-15T11:18:11.475Z,19136.00
2019-06-15T11:19:11.468Z,19040.00
2019-06-15T11:20:11.500Z,18528.00
2019-06-15T11:21:11.469Z,17856.00
2019-06-15T11:22:11.492Z,17824.00
2019-06-15T11:23:11.433Z,18304.00
2019-06-15T11:24:11.406Z,18944.00
2019-06-15T11:25:11.398Z,19136.00
2019-06-15T11:26:11.388Z,18592.00
2019-06-15T11:27:11.404Z,17792.00
2019-06-15T11:28:11.356Z,17312.00
2019-06-15T11:29:11.341Z,17120.00
2019-06-15T11:30:14.066Z,16896.00
2019-06-15T11:31:11.319Z,16672.00
2019-06-15T11:32:11.330Z,16640.00
2019-06-15T11:33:11.294Z,16704.00
2019-06-15T11:34:11.283Z,16228.00
2019-06-15T11:35:11.270Z,15828.00
2019-06-15T11:36:11.264Z,15504.00
2019-06-15T11:37:11.860Z,15144.00
2019-06-15T11:38:11.233Z,14600.00
2019-06-15T11:39:11.228Z,14228.00
2019-06-15T11:40:11.209Z,13408.00
2019-06-15T11:41:11.197Z,12364.00
2019-06-15T11:42:11.215Z,10920.00
2019-06-15T11:43:11.172Z,9980.00
2019-06-15T11:44:11.180Z,9884.00
2019-06-15T11:45:11.147Z,10492.00
2019-06-15T11:46:11.147Z,10828.00
2019-06-15T11:47:11.154Z,11332.00
2019-06-15T11:48:11.114Z,11592.00
2019-06-15T11:49:11.099Z,12224.00
2019-06-15T11:50:12.098Z,12808.00
2019-06-15T11:51:11.075Z,13168.00
2019-06-15T11:52:11.090Z,12964.00
2019-06-15T11:53:11.048Z,12556.00
2019-06-15T11:54:11.044Z,11648.00
2019-06-15T11:55:11.021Z,10672.00
2019-06-15T11:56:11.014Z,9964.00
2019-06-15T11:57:11.047Z,10452.00
2019-06-15T11:58:10.986Z,11556.00
2019-06-15T11:59:10.978Z,12512.00
2019-06-15T12:00:10.968Z,13260.00
2019-06-15T12:01:10.952Z,13660.00
2019-06-15T12:02:10.954Z,14144.00
2019-06-15T12:03:10.925Z,14232.00
2019-06-15T12:04:10.915Z,14320.00
2019-06-15T12:05:10.927Z,14144.00
2019-06-15T12:06:10.891Z,14088.00
2019-06-15T12:07:10.890Z,13956.00
2019-06-15T12:08:10.856Z,14100.00
2019-06-15T12:09:10.851Z,14264.00
2019-06-15T12:10:10.830Z,14400.00